Terminal Aerodrome Forecast
Issued by NWS

Current Version | Previous Version | Text Only | Print | Product List | Glossary On
Versions: 1 2 3 4 5 6 7 8 9 10 11
681
FTUS42 TJSJ 070530
TAFJMZ
TAF
TJMZ 070530Z 0706/0806 VRB04KT P6SM SCT040
     FM071330 17010KT P6SM SCT030
     FM071600 21008KT P6SM BKN035
     FM072200 06006KT P6SM SCT040
      AMD NOT SKED=

USA.gov is the U.S. government's official web portal to all federal, state and local government web resources and services.